createdAt,value
2019-05-18T00:01:09.573Z,72.07
2019-05-18T00:06:14.903Z,72.72
2019-05-18T00:11:20.499Z,72.15
2019-05-18T00:16:25.736Z,71.55
2019-05-18T00:21:31.310Z,72.79
2019-05-18T00:26:36.976Z,73.06
2019-05-18T00:31:42.428Z,74.66
2019-05-18T00:36:48.203Z,75.75
2019-05-18T00:41:53.653Z,75.91
2019-05-18T00:46:58.939Z,73.65
2019-05-18T00:52:04.129Z,75.30
2019-05-18T00:57:10.136Z,75.57
2019-05-18T01:02:15.392Z,76.15
2019-05-18T01:07:20.648Z,76.09
2019-05-18T01:12:26.363Z,75.13
2019-05-18T01:17:31.554Z,74.93
2019-05-18T01:22:36.725Z,74.97
2019-05-18T01:27:42.108Z,74.84
2019-05-18T01:32:47.823Z,74.42
2019-05-18T01:37:52.994Z,73.50
2019-05-18T01:42:58.264Z,76.38
2019-05-18T01:48:13.480Z,78.39
2019-05-18T01:53:10.917Z,77.17
2019-05-18T01:58:16.386Z,78.14
2019-05-18T02:03:21.846Z,78.54
2019-05-18T02:08:26.924Z,78.91
2019-05-18T02:13:32.371Z,78.74
2019-05-18T02:18:38.123Z,77.63
2019-05-18T02:23:43.278Z,77.39
2019-05-18T02:28:48.945Z,77.44
2019-05-18T02:33:54.505Z,78.01
2019-05-18T02:38:59.969Z,77.08
2019-05-18T02:44:05.964Z,76.68
2019-05-18T02:49:11.028Z,76.45
2019-05-18T02:54:16.108Z,76.42
2019-05-18T02:59:21.240Z,76.63
2019-05-18T03:04:26.301Z,76.66
2019-05-18T03:09:31.467Z,77.02
2019-05-18T03:14:36.860Z,76.34
2019-05-18T03:19:42.465Z,76.62
2019-05-18T03:24:47.580Z,76.71
2019-05-18T03:29:52.720Z,76.22
2019-05-18T03:34:58.634Z,76.03
2019-05-18T03:40:04.069Z,76.10
2019-05-18T03:45:09.614Z,76.34
2019-05-18T03:50:15.298Z,75.91
2019-05-18T03:55:20.855Z,76.18
2019-05-18T04:00:25.921Z,76.30
2019-05-18T04:05:32.125Z,76.48
2019-05-18T04:10:37.144Z,73.08
2019-05-18T04:15:42.243Z,75.06
2019-05-18T04:20:48.156Z,77.79
2019-05-18T04:25:53.555Z,78.22
2019-05-18T04:30:58.976Z,78.67
2019-05-18T04:36:04.546Z,79.47
2019-05-18T04:41:09.855Z,79.44
2019-05-18T04:46:15.224Z,78.78
2019-05-18T04:51:20.338Z,78.56
2019-05-18T04:56:25.805Z,78.31
2019-05-18T05:01:31.230Z,79.03
2019-05-18T05:06:36.300Z,78.51
2019-05-18T05:11:41.281Z,77.98
2019-05-18T05:16:46.895Z,77.61
2019-05-18T05:21:52.836Z,75.68
2019-05-18T05:26:59.123Z,74.90
2019-05-18T05:32:04.342Z,74.79
2019-05-18T05:37:10.066Z,73.51
2019-05-18T05:42:15.729Z,72.99
2019-05-18T05:47:21.828Z,72.38
2019-05-18T05:52:27.681Z,73.54
2019-05-18T05:57:33.452Z,69.43
2019-05-18T06:02:39.111Z,68.08
2019-05-18T06:07:44.222Z,66.74
2019-05-18T06:12:49.627Z,64.45
2019-05-18T06:17:54.714Z,63.73
2019-05-18T06:23:00.753Z,64.31
2019-05-18T06:28:05.922Z,62.73
2019-05-18T06:33:11.361Z,64.31
2019-05-18T06:38:16.531Z,62.39
2019-05-18T06:43:22.354Z,62.74
2019-05-18T06:48:27.819Z,63.63
2019-05-18T06:53:32.896Z,61.56
2019-05-18T06:58:38.721Z,61.23
2019-05-18T07:03:45.116Z,61.49
2019-05-18T07:08:50.615Z,61.87
2019-05-18T07:13:55.702Z,61.31
2019-05-18T07:19:00.824Z,60.77
2019-05-18T07:24:06.688Z,61.12
2019-05-18T07:29:12.164Z,59.00
2019-05-18T07:34:17.613Z,58.32
2019-05-18T07:39:23.047Z,57.62
2019-05-18T07:44:28.442Z,57.45
2019-05-18T07:49:33.583Z,56.68
2019-05-18T07:54:38.776Z,54.86
2019-05-18T07:59:44.096Z,54.74
2019-05-18T08:04:49.177Z,53.09
2019-05-18T08:09:54.555Z,53.80
2019-05-18T08:15:00.091Z,52.58
2019-05-18T08:20:05.555Z,51.76
2019-05-18T08:25:11.157Z,52.14
2019-05-18T08:30:16.538Z,52.68
2019-05-18T08:35:21.586Z,50.94
2019-05-18T08:40:27.011Z,52.62
2019-05-18T08:45:32.102Z,52.92
2019-05-18T08:50:37.598Z,52.32
2019-05-18T08:55:42.827Z,51.63
2019-05-18T09:00:48.213Z,50.79
2019-05-18T09:05:54.114Z,49.52
2019-05-18T09:10:59.834Z,50.51
2019-05-18T09:16:05.715Z,48.38
2019-05-18T09:21:11.467Z,50.49
2019-05-18T09:26:16.466Z,49.83
2019-05-18T09:31:21.556Z,48.36
2019-05-18T09:36:26.931Z,47.53
2019-05-18T09:41:32.290Z,46.22
2019-05-18T09:46:37.434Z,47.00
2019-05-18T09:51:42.953Z,45.60
2019-05-18T09:56:47.823Z,46.03
2019-05-18T10:01:51.807Z,47.64
2019-05-18T10:06:56.036Z,47.43
2019-05-18T10:12:00.155Z,47.05
2019-05-18T10:17:04.195Z,48.27
2019-05-18T10:22:08.250Z,48.51
2019-05-18T10:27:12.667Z,46.10
2019-05-18T10:32:16.747Z,45.70
2019-05-18T10:37:21.937Z,45.03
2019-05-18T10:42:27.274Z,45.39
2019-05-18T10:47:32.614Z,44.76
2019-05-18T10:52:37.767Z,43.69
2019-05-18T10:57:43.272Z,45.36
2019-05-18T11:02:48.726Z,46.21
2019-05-18T11:07:54.054Z,42.48
2019-05-18T11:12:59.547Z,42.56
2019-05-18T11:18:05.372Z,41.08
2019-05-18T11:23:10.627Z,41.70
2019-05-18T11:28:15.782Z,41.65
2019-05-18T11:33:20.946Z,42.55
2019-05-18T11:38:26.159Z,40.32
2019-05-18T11:43:31.675Z,40.01
2019-05-18T11:48:36.931Z,37.70
2019-05-18T11:53:42.596Z,38.88
2019-05-18T11:58:47.966Z,40.08
2019-05-18T12:03:53.516Z,38.54
2019-05-18T12:08:58.800Z,39.50
2019-05-18T12:14:04.111Z,41.06
2019-05-18T12:19:09.645Z,41.72
2019-05-18T12:24:16.126Z,37.09
2019-05-18T12:29:21.473Z,38.08
2019-05-18T12:34:26.501Z,37.13
2019-05-18T12:39:32.067Z,37.45
2019-05-18T12:44:37.448Z,36.91
2019-05-18T12:49:42.493Z,39.16
2019-05-18T12:54:48.034Z,38.05
2019-05-18T12:59:53.492Z,35.58
2019-05-18T13:04:58.558Z,37.66
2019-05-18T13:10:03.908Z,34.18
2019-05-18T13:15:10.829Z,35.83
2019-05-18T13:20:17.584Z,37.54
2019-05-18T13:25:22.804Z,36.81
2019-05-18T13:30:28.506Z,38.53
2019-05-18T13:35:33.740Z,38.19
2019-05-18T13:40:39.215Z,37.34
2019-05-18T13:45:44.557Z,36.26
2019-05-18T13:50:50.470Z,36.44
2019-05-18T13:55:55.979Z,35.58
2019-05-18T14:01:01.573Z,34.83
2019-05-18T14:06:07.142Z,33.97
2019-05-18T14:11:12.750Z,34.30
2019-05-18T14:16:18.018Z,33.72
2019-05-18T14:21:23.660Z,34.14
2019-05-18T14:26:28.900Z,36.27
2019-05-18T14:31:34.384Z,33.87
2019-05-18T14:36:40.207Z,35.39
2019-05-18T14:41:45.780Z,35.58
2019-05-18T14:46:51.331Z,34.92
2019-05-18T14:51:56.474Z,34.92
2019-05-18T14:57:01.545Z,34.09
2019-05-18T15:02:06.693Z,35.63
2019-05-18T15:07:11.791Z,35.05
2019-05-18T15:12:17.207Z,34.14
2019-05-18T15:17:22.300Z,33.45
2019-05-18T15:22:27.388Z,33.61
2019-05-18T15:27:32.764Z,33.00
2019-05-18T15:32:38.327Z,37.04
2019-05-18T15:37:43.967Z,37.48
2019-05-18T15:42:49.083Z,37.05
2019-05-18T15:47:54.150Z,36.52
2019-05-18T15:52:59.838Z,35.90
2019-05-18T15:58:05.529Z,36.76
2019-05-18T16:03:10.998Z,37.39
2019-05-18T16:13:32.959Z,37.87
2019-05-18T16:18:38.482Z,38.14
2019-05-18T16:23:43.646Z,38.69
2019-05-18T16:28:49.100Z,38.69
2019-05-18T16:33:54.102Z,39.17
2019-05-18T16:38:59.287Z,39.15
2019-05-18T16:44:04.767Z,39.27
2019-05-18T16:49:10.285Z,38.31
2019-05-18T16:54:15.694Z,38.65
2019-05-18T16:59:21.504Z,37.88
2019-05-18T17:04:26.958Z,38.07
2019-05-18T17:09:32.468Z,38.25
2019-05-18T17:14:37.617Z,40.09
2019-05-18T17:19:42.679Z,38.14
2019-05-18T17:24:47.970Z,38.42
2019-05-18T17:29:53.191Z,39.10
2019-05-18T17:34:58.598Z,39.22
2019-05-18T17:40:05.066Z,39.88
2019-05-18T17:45:11.238Z,40.53
2019-05-18T17:50:16.595Z,41.42
2019-05-18T17:55:22.287Z,42.85
2019-05-18T18:00:27.748Z,42.06
2019-05-18T18:05:32.823Z,43.29
2019-05-18T18:10:37.887Z,44.79
2019-05-18T18:15:43.317Z,44.41
2019-05-18T18:20:48.885Z,43.58
2019-05-18T18:25:54.648Z,43.52
2019-05-18T18:31:00.148Z,46.24
2019-05-18T18:36:05.427Z,46.19
2019-05-18T18:41:11.232Z,47.34
2019-05-18T18:46:17.256Z,47.85
2019-05-18T18:51:22.440Z,47.80
2019-05-18T18:56:27.838Z,48.01
2019-05-18T19:01:33.175Z,47.78
2019-05-18T19:06:39.085Z,48.18
2019-05-18T19:11:44.115Z,48.29
2019-05-18T19:16:49.769Z,48.97
2019-05-18T19:21:54.855Z,51.13
2019-05-18T19:27:00.286Z,52.79
2019-05-18T19:32:05.785Z,56.19
2019-05-18T19:37:11.104Z,56.01
2019-05-18T19:42:16.515Z,56.10
2019-05-18T19:47:22.111Z,55.37
2019-05-18T19:52:27.910Z,57.19
2019-05-18T19:57:33.346Z,59.31
2019-05-18T20:02:38.585Z,59.39
2019-05-18T20:07:43.651Z,59.39
2019-05-18T20:12:48.768Z,59.87
2019-05-18T20:17:54.271Z,60.28
2019-05-18T20:23:00.154Z,60.56
2019-05-18T20:28:05.817Z,60.75
2019-05-18T20:33:11.268Z,60.72
2019-05-18T20:38:16.432Z,60.81
2019-05-18T20:43:21.924Z,61.22
2019-05-18T20:48:26.966Z,62.12
2019-05-18T20:53:32.295Z,62.18
2019-05-18T20:58:40.540Z,62.27
2019-05-18T21:03:44.749Z,63.03
2019-05-18T21:08:49.974Z,62.92
2019-05-18T21:13:57.626Z,63.46
2019-05-18T21:19:01.888Z,64.30
2019-05-18T21:24:07.205Z,64.14
2019-05-18T21:29:12.280Z,64.40
2019-05-18T21:34:19.041Z,65.13
2019-05-18T21:39:24.604Z,66.09
2019-05-18T21:44:30.483Z,66.00
2019-05-18T21:49:35.840Z,65.48
2019-05-18T21:54:41.232Z,65.54
2019-05-18T21:59:46.535Z,65.25
2019-05-18T22:04:52.066Z,64.75
2019-05-18T22:09:58.426Z,64.64
2019-05-18T22:15:03.884Z,65.18
2019-05-18T22:20:09.855Z,65.90
2019-05-18T22:25:15.294Z,66.24
2019-05-18T22:30:21.065Z,66.11
2019-05-18T22:35:26.525Z,67.21
2019-05-18T22:40:31.737Z,66.44
2019-05-18T22:45:37.034Z,66.04
2019-05-18T22:50:42.397Z,67.08
2019-05-18T22:55:47.839Z,66.04
2019-05-18T23:00:53.587Z,65.91
2019-05-18T23:05:59.546Z,65.92
2019-05-18T23:11:04.830Z,66.29
2019-05-18T23:16:09.945Z,66.61
2019-05-18T23:21:15.273Z,66.04
2019-05-18T23:26:20.621Z,66.19
2019-05-18T23:31:26.297Z,66.21
2019-05-18T23:36:31.452Z,66.12
2019-05-18T23:41:37.195Z,66.79
2019-05-18T23:46:42.915Z,66.30
2019-05-18T23:51:48.638Z,65.58
2019-05-18T23:56:53.799Z,65.50
